Time;durP1;ratioP1;P1;durP2;ratioP2;P2;SDS_P1;SDS_P2;PMS_P1;PMS_P2;Temp;Humidity;BMP_temperature;BMP_pressure;BME280_temperature;BME280_humidity;BME280_pressure;Samples;Min_cycle;Max_cycle;Signal;HPM_P1;HPM_P2
2023/02/06 00:01:43;;;;;;;31.30;10.87;;;;;;;-145.69;100.00;52737.50;5118723;28;20202;-82
2023/02/06 00:04:09;;;;;;;62.97;14.40;;;;;;;-145.69;100.00;52737.50;5116830;28;20567;-83
2023/02/06 00:06:36;;;;;;;27.10;11.83;;;;;;;-145.69;100.00;52717.69;5116617;28;20220;-81
2023/02/06 00:09:04;;;;;;;27.13;11.97;;;;;;;-145.69;100.00;52757.31;5116308;28;20406;-82
2023/02/06 00:11:30;;;;;;;28.10;11.77;;;;;;;-145.69;100.00;52741.47;5115922;28;20190;-82
2023/02/06 00:13:57;;;;;;;42.55;18.20;;;;;;;-145.69;100.00;52721.66;5115534;28;20455;-82
2023/02/06 00:16:25;;;;;;;54.57;15.87;;;;;;;-145.69;100.00;52733.53;5116119;28;20201;-81
2023/02/06 00:18:54;;;;;;;29.77;12.67;;;;;;;-145.69;100.00;52725.63;5114903;28;20201;-80
2023/02/06 00:21:24;;;;;;;43.33;14.07;;;;;;;-145.69;100.00;52731.56;5115386;28;20204;-82
2023/02/06 00:23:52;;;;;;;47.90;14.00;;;;;;;-145.69;100.00;52729.56;5116250;28;20703;-81
2023/02/06 00:26:18;;;;;;;67.57;15.00;;;;;;;-145.69;100.00;52725.63;5116240;28;20204;-81
2023/02/06 00:28:45;;;;;;;51.00;14.30;;;;;;;-145.69;100.00;52684.03;5116089;28;20202;-80
2023/02/06 00:31:13;;;;;;;45.67;14.23;;;;;;;-145.69;100.00;52739.47;5115426;28;20656;-82
2023/02/06 00:33:42;;;;;;;56.50;14.43;;;;;;;-145.69;100.00;52707.78;5116300;28;20580;-83
2023/02/06 00:36:10;;;;;;;62.77;15.10;;;;;;;-145.69;100.00;52751.34;5115708;28;20661;-82
2023/02/06 00:38:38;;;;;;;24.53;10.97;;;;;;;-145.69;100.00;52727.59;5114839;28;20201;-81
2023/02/06 00:41:05;;;;;;;27.77;11.60;;;;;;;-145.69;100.00;52723.63;5092481;28;20322;-81
2023/02/06 00:43:32;;;;;;;45.37;14.10;;;;;;;-145.69;100.00;52741.47;5107505;28;20201;-81
2023/02/06 00:45:58;;;;;;;82.07;17.00;;;;;;;-145.69;100.00;52721.66;5095256;28;20657;-82
2023/02/06 00:48:25;;;;;;;65.37;14.93;;;;;;;-145.69;100.00;52737.50;5095268;28;20205;-81
2023/02/06 00:50:53;;;;;;;41.80;13.47;;;;;;;-145.69;100.00;52711.75;5106255;28;20209;-81
2023/02/06 00:53:21;;;;;;;44.23;15.07;;;;;;;-145.69;100.00;52747.41;5114340;28;20221;-80
2023/02/06 00:55:50;;;;;;;73.20;13.50;;;;;;;-145.69;100.00;52705.81;5115163;28;20193;-82
2023/02/06 00:58:16;;;;;;;60.03;13.60;;;;;;;-145.69;100.00;52741.47;5115095;28;20197;-81
2023/02/06 01:00:43;;;;;;;96.53;15.07;;;;;;;-145.69;100.00;52761.25;5115630;28;20194;-81
2023/02/06 01:03:12;;;;;;;156.20;17.90;;;;;;;-145.69;100.00;52717.69;5115040;28;20288;-83
2023/02/06 01:05:39;;;;;;;140.07;17.23;;;;;;;-145.69;100.00;52745.41;5115409;28;20201;-81
2023/02/06 01:08:06;;;;;;;177.33;18.27;;;;;;;-145.69;100.00;52743.44;5114622;27;20228;-82
2023/02/06 01:10:34;;;;;;;185.70;17.40;;;;;;;-145.69;100.00;52709.78;5115092;28;20228;-82
2023/02/06 01:13:01;;;;;;;124.53;16.80;;;;;;;-145.69;100.00;52741.47;5099508;28;20233;-81
2023/02/06 01:15:30;;;;;;;109.87;14.67;;;;;;;-145.69;100.00;52735.50;5094466;28;20202;-81
2023/02/06 01:17:56;;;;;;;67.87;14.30;;;;;;;-145.69;100.00;52757.31;5094426;28;20213;-81
2023/02/06 01:20:23;;;;;;;58.30;14.33;;;;;;;-145.69;100.00;52739.47;5100917;28;20191;-80
2023/02/06 01:22:50;;;;;;;58.30;14.43;;;;;;;-145.69;100.00;52699.88;5115049;28;20201;-80
2023/02/06 01:25:17;;;;;;;74.97;15.70;;;;;;;-145.69;100.00;52737.50;5114322;28;20198;-80
2023/02/06 01:27:45;;;;;;;45.00;13.70;;;;;;;-145.69;100.00;52751.34;5114582;28;20197;-80
2023/02/06 01:30:13;;;;;;;33.53;12.33;;;;;;;-145.69;100.00;52721.66;5114818;28;20537;-80
2023/02/06 01:32:41;;;;;;;30.43;13.00;;;;;;;-145.69;100.00;52705.81;5100610;28;20194;-80
2023/02/06 01:35:10;;;;;;;57.37;14.27;;;;;;;-145.69;100.00;52719.66;5094118;28;20226;-80
2023/02/06 01:37:40;;;;;;;37.47;13.03;;;;;;;-145.69;100.00;52749.38;5093756;28;20198;-80
2023/02/06 01:40:13;;;;;;;43.17;13.67;;;;;;;-145.69;100.00;52739.47;5094283;28;20198;-79
2023/02/06 01:42:42;;;;;;;42.70;13.27;;;;;;;-145.69;100.00;52731.56;5093753;28;20253;-79
2023/02/06 01:45:46;;;;;;;42.40;13.93;;;;;;;-145.69;100.00;52713.72;5110470;28;20197;-81
2023/02/06 01:48:32;;;;;;;37.70;12.73;;;;;;;-145.69;100.00;52721.66;5114268;28;20194;-80
2023/02/06 01:51:00;;;;;;;26.87;11.07;;;;;;;-145.69;100.00;52709.78;5113985;28;20197;-80
2023/02/06 01:53:28;;;;;;;28.93;11.37;;;;;;;-145.69;100.00;52697.88;5113790;28;20225;-80
2023/02/06 01:55:56;;;;;;;37.23;12.80;;;;;;;-145.69;100.00;52719.66;5110951;28;20289;-79
2023/02/06 01:58:27;;;;;;;31.33;12.07;;;;;;;-145.69;100.00;52731.56;5093689;28;20205;-80
2023/02/06 02:00:55;;;;;;;26.10;11.23;;;;;;;-145.69;100.00;52687.97;5093856;28;20205;-81
2023/02/06 02:03:26;;;;;;;25.87;10.43;;;;;;;-145.69;100.00;52711.75;5093057;28;20210;-80
2023/02/06 02:05:57;;;;;;;23.90;10.13;;;;;;;-145.69;100.00;52721.66;5093928;28;20195;-80
2023/02/06 02:08:31;;;;;;;25.10;9.77;;;;;;;-145.69;100.00;52731.56;5093690;28;20294;-80
2023/02/06 02:10:59;;;;;;;26.77;10.63;;;;;;;-145.69;100.00;52729.56;5093978;28;20198;-80
2023/02/06 02:13:25;;;;;;;21.20;10.37;;;;;;;-145.69;100.00;52751.34;5111419;28;20220;-79
2023/02/06 02:16:01;;;;;;;26.30;10.87;;;;;;;-145.69;100.00;52737.50;5112162;28;20203;-80
2023/02/06 02:18:46;;;;;;;26.43;10.00;;;;;;;-145.69;100.00;52705.81;5113665;28;20228;-80
2023/02/06 02:22:02;;;;;;;23.53;9.47;;;;;;;-145.69;100.00;52695.91;5113284;28;20612;-80
2023/02/06 02:24:52;;;;;;;20.93;10.00;;;;;;;-145.69;100.00;52729.56;5113585;28;20652;-80
2023/02/06 02:27:39;;;;;;;27.30;11.20;;;;;;;-145.69;100.00;52745.41;5113047;28;20644;-80
2023/02/06 02:30:47;;;;;;;24.37;10.23;;;;;;;-145.69;100.00;52719.66;5113648;28;20212;-80
2023/02/06 02:33:56;;;;;;;25.77;10.20;;;;;;;-145.69;100.00;52713.72;5113630;28;20244;-80
2023/02/06 02:36:29;;;;;;;26.03;10.97;;;;;;;-145.69;100.00;52751.34;5113487;28;20298;-80
2023/02/06 02:39:07;;;;;;;24.03;10.03;;;;;;;-145.69;100.00;52737.50;5107715;28;20202;-80
2023/02/06 02:41:41;;;;;;;25.67;10.60;;;;;;;-145.69;100.00;52745.41;5090278;28;20596;-80
2023/02/06 02:44:11;;;;;;;23.67;10.13;;;;;;;-145.69;100.00;52729.56;5112146;28;20290;-81
2023/02/06 02:46:42;;;;;;;24.53;10.03;;;;;;;-145.69;100.00;52721.66;5113044;28;20197;-80
2023/02/06 02:49:13;;;;;;;19.67;8.23;;;;;;;-145.69;100.00;52729.56;5113543;28;20197;-80
2023/02/06 02:51:42;;;;;;;23.57;8.87;;;;;;;-145.69;100.00;52715.72;5106156;28;20201;-80
2023/02/06 02:54:11;;;;;;;20.20;9.20;;;;;;;-145.69;100.00;52709.78;5112984;28;20229;-81
2023/02/06 02:56:40;;;;;;;17.83;8.13;;;;;;;-145.69;100.00;52709.78;5112866;28;20202;-80
2023/02/06 02:59:11;;;;;;;24.93;9.70;;;;;;;-145.69;100.00;52705.81;5113306;28;20209;-81
2023/02/06 03:01:42;;;;;;;20.37;8.87;;;;;;;-145.69;100.00;52695.91;5111678;28;20193;-80
2023/02/06 03:04:16;;;;;;;18.13;8.23;;;;;;;-145.69;100.00;52697.88;5112757;28;20200;-80
2023/02/06 03:07:02;;;;;;;18.80;8.47;;;;;;;-145.69;100.00;52711.75;5112506;28;20248;-81
2023/02/06 03:09:39;;;;;;;19.57;8.10;;;;;;;-145.69;100.00;52711.75;5113000;28;20285;-80
2023/02/06 03:12:12;;;;;;;14.50;7.20;;;;;;;-145.69;100.00;52751.34;5113018;28;20205;-81
2023/02/06 03:14:46;;;;;;;22.87;9.57;;;;;;;-145.69;100.00;52719.66;5113084;28;20320;-81
2023/02/06 03:17:16;;;;;;;18.80;8.57;;;;;;;-145.69;100.00;52725.63;5117112;28;20242;-82
2023/02/06 03:19:48;;;;;;;15.33;7.47;;;;;;;-145.69;100.00;52737.50;5116927;28;20208;-80
2023/02/06 03:22:17;;;;;;;26.87;9.77;;;;;;;-145.69;100.00;52745.41;5116685;28;20666;-80
2023/02/06 03:24:45;;;;;;;27.90;10.87;;;;;;;-145.69;100.00;52725.63;5117327;28;20201;-80
2023/02/06 03:27:15;;;;;;;26.40;11.30;;;;;;;-145.69;100.00;52725.63;5116889;28;20281;-80
2023/02/06 03:29:44;;;;;;;28.43;11.37;;;;;;;-145.69;100.00;52713.72;5099611;28;20190;-80
2023/02/06 03:32:15;;;;;;;24.17;10.20;;;;;;;-145.69;100.00;52719.66;5112519;28;20201;-79
2023/02/06 03:34:47;;;;;;;21.30;10.23;;;;;;;-145.69;100.00;52731.56;5116722;28;20233;-80
2023/02/06 03:37:21;;;;;;;25.13;10.67;;;;;;;-145.69;100.00;52693.94;5104408;28;20204;-80
2023/02/06 03:39:48;;;;;;;32.67;12.40;;;;;;;-145.69;100.00;52741.47;5096583;28;20711;-80
2023/02/06 03:42:16;;;;;;;35.10;12.57;;;;;;;-145.69;100.00;52715.72;5096087;28;20234;-80
2023/02/06 03:44:51;;;;;;;28.43;11.60;;;;;;;-145.69;100.00;52737.50;5096221;28;20201;-81
2023/02/06 03:47:20;;;;;;;40.10;13.47;;;;;;;-145.69;100.00;52745.41;5096518;28;20197;-82
2023/02/06 03:49:50;;;;;;;43.87;13.27;;;;;;;-145.69;100.00;52713.72;5096389;28;20293;-80
2023/02/06 03:52:25;;;;;;;33.50;12.07;;;;;;;-145.69;100.00;52729.56;5096327;28;20224;-81
2023/02/06 03:55:01;;;;;;;33.93;12.70;;;;;;;-145.69;100.00;52749.38;5096228;28;20221;-81
2023/02/06 03:57:30;;;;;;;37.57;11.80;;;;;;;-145.69;100.00;52745.41;5095979;28;20201;-81
2023/02/06 03:59:57;;;;;;;34.47;12.17;;;;;;;-145.69;100.00;52737.50;5111702;28;20667;-81
2023/02/06 04:02:26;;;;;;;31.40;12.10;;;;;;;-145.69;100.00;52763.25;5098485;28;20205;-81
2023/02/06 04:04:52;;;;;;;28.13;11.53;;;;;;;-145.69;100.00;52701.84;5095983;28;20225;-81
2023/02/06 04:07:25;;;;;;;34.03;11.90;;;;;;;-145.69;100.00;52721.66;5095379;28;20213;-81
2023/02/06 04:09:52;;;;;;;30.73;11.93;;;;;;;-145.69;100.00;52709.78;5095628;28;20217;-80
2023/02/06 04:12:19;;;;;;;33.33;12.63;;;;;;;-145.69;100.00;52733.53;5096034;28;20210;-82
2023/02/06 04:14:45;;;;;;;39.27;13.00;;;;;;;-145.69;100.00;52747.41;5095728;28;20316;-82
2023/02/06 04:17:12;;;;;;;39.63;13.40;;;;;;;-145.69;100.00;52741.47;5095408;28;20194;-81
2023/02/06 04:19:40;;;;;;;40.13;13.23;;;;;;;-145.69;100.00;52729.56;5095533;28;20564;-82
2023/02/06 04:22:08;;;;;;;37.13;13.20;;;;;;;-145.69;100.00;52733.53;5098909;28;20192;-80
2023/02/06 04:24:39;;;;;;;34.23;12.47;;;;;;;-145.69;100.00;52741.47;5115723;28;20660;-80
2023/02/06 04:27:05;;;;;;;44.47;12.73;;;;;;;-145.69;100.00;52753.34;5115172;28;20284;-80
2023/02/06 04:29:34;;;;;;;36.17;12.70;;;;;;;-145.69;100.00;52707.78;5105407;28;20194;-81
2023/02/06 04:32:02;;;;;;;35.63;12.33;;;;;;;-145.69;100.00;52725.63;5109116;28;20204;-81
2023/02/06 04:34:28;;;;;;;43.77;13.33;;;;;;;-145.69;100.00;52705.81;5114856;28;20763;-81
2023/02/06 04:36:55;;;;;;;46.83;13.83;;;;;;;-145.69;100.00;52737.50;5094908;28;20199;-81
2023/02/06 04:39:22;;;;;;;38.30;13.20;;;;;;;-145.69;100.00;52725.63;5090604;28;20195;-79
2023/02/06 04:41:51;;;;;;;41.73;12.93;;;;;;;-145.69;100.00;52729.56;5094829;28;20230;-81
2023/02/06 04:44:17;;;;;;;46.43;12.77;;;;;;;-145.69;100.00;52745.41;5094921;28;20565;-81
2023/02/06 04:46:44;;;;;;;34.27;11.67;;;;;;;-145.69;100.00;52717.69;5095580;28;20194;-81
2023/02/06 04:49:12;;;;;;;29.17;10.00;;;;;;;-145.69;100.00;52729.56;5095272;28;20206;-80
2023/02/06 04:51:38;;;;;;;36.47;11.17;;;;;;;-145.69;100.00;52721.66;5094768;28;20242;-80
2023/02/06 04:54:05;;;;;;;34.00;11.43;;;;;;;-145.69;100.00;52713.72;5095039;28;20254;-81
2023/02/06 04:56:32;;;;;;;32.40;10.67;;;;;;;-145.69;100.00;52753.34;5095236;28;20198;-82
2023/02/06 04:59:03;;;;;;;37.57;11.33;;;;;;;-145.69;100.00;52725.63;5098961;28;20198;-81
2023/02/06 05:01:30;;;;;;;42.43;12.90;;;;;;;-145.69;100.00;52717.69;5103838;28;20273;-81
2023/02/06 05:03:58;;;;;;;34.43;12.13;;;;;;;-145.69;100.00;52733.53;5115150;28;20197;-82
2023/02/06 05:06:24;;;;;;;31.50;10.97;;;;;;;-145.69;100.00;52759.28;5115553;28;20288;-82
2023/02/06 05:08:51;;;;;;;30.13;10.50;;;;;;;-145.69;100.00;52701.84;5114941;28;20201;-81
2023/02/06 05:11:17;;;;;;;32.00;10.97;;;;;;;-145.69;100.00;52763.25;5114295;28;20208;-82
2023/02/06 05:13:44;;;;;;;31.93;10.97;;;;;;;-145.69;100.00;52725.63;5115309;28;20292;-80
2023/02/06 05:16:16;;;;;;;30.13;11.13;;;;;;;-145.69;100.00;52767.19;5114767;28;20229;-81
2023/02/06 05:18:44;;;;;;;38.10;10.67;;;;;;;-145.69;100.00;52727.59;5115060;28;20247;-80
2023/02/06 05:21:11;;;;;;;33.10;10.37;;;;;;;-145.69;100.00;52725.63;5114616;28;20225;-81
2023/02/06 05:23:38;;;;;;;35.27;11.40;;;;;;;-145.69;100.00;52725.63;5105131;28;20194;-81
2023/02/06 05:26:05;;;;;;;32.90;10.47;;;;;;;-145.69;100.00;52719.66;5094490;28;20213;-81
2023/02/06 05:28:33;;;;;;;30.17;10.57;;;;;;;-145.69;100.00;52693.94;5094387;28;20732;-83
2023/02/06 05:30:59;;;;;;;37.97;11.83;;;;;;;-145.69;100.00;52715.72;5097333;28;20193;-82
2023/02/06 05:33:27;;;;;;;39.07;12.93;;;;;;;-145.69;100.00;52715.72;5114616;28;20201;-80
2023/02/06 05:35:54;;;;;;;40.93;12.47;;;;;;;-145.69;100.00;52741.47;5105549;28;20225;-80
2023/02/06 05:38:20;;;;;;;42.50;12.40;;;;;;;-145.69;100.00;52705.81;5093903;28;20202;-81
2023/02/06 05:40:51;;;;;;;38.60;11.53;;;;;;;-145.69;100.00;52721.66;5094044;28;20210;-82
2023/02/06 05:43:21;;;;;;;42.90;12.50;;;;;;;-145.69;100.00;52745.41;5110600;28;20224;-82
2023/02/06 05:45:47;;;;;;;31.13;11.23;;;;;;;-145.69;100.00;52729.56;5114047;28;20328;-82
2023/02/06 05:48:14;;;;;;;36.10;11.55;;;;;;;-145.69;100.00;52705.81;5113891;28;20447;-81
2023/02/06 05:50:42;;;;;;;38.20;11.57;;;;;;;-145.69;100.00;52701.84;5114465;28;20202;-82
2023/02/06 05:53:08;;;;;;;40.60;11.63;;;;;;;-145.69;100.00;52773.16;5113694;28;20625;-82
2023/02/06 05:55:35;;;;;;;37.90;11.10;;;;;;;-145.69;100.00;52705.81;5112260;28;20231;-82
2023/02/06 05:58:01;;;;;;;38.80;12.13;;;;;;;-145.69;100.00;52705.81;5107317;28;20284;-82
2023/02/06 06:00:30;;;;;;;31.27;10.77;;;;;;;-145.69;100.00;52733.53;5114421;28;20197;-82
2023/02/06 06:02:57;;;;;;;27.90;10.43;;;;;;;-145.69;100.00;52757.31;5114276;28;20289;-81
2023/02/06 06:05:24;;;;;;;30.67;10.67;;;;;;;-145.69;100.00;52723.63;5109214;28;20205;-82
2023/02/06 06:07:52;;;;;;;26.80;9.70;;;;;;;-145.69;100.00;52713.72;5093910;28;20198;-82
2023/02/06 06:10:19;;;;;;;29.13;10.00;;;;;;;-145.69;100.00;52753.34;5093907;28;20209;-83
2023/02/06 06:12:45;;;;;;;26.37;9.50;;;;;;;-145.69;100.00;52709.78;5093656;28;20205;-81
2023/02/06 06:15:12;;;;;;;25.97;9.10;;;;;;;-145.69;100.00;52757.31;5093816;28;20325;-81
2023/02/06 06:17:38;;;;;;;31.47;10.50;;;;;;;-145.69;100.00;52741.47;5112579;28;20529;-81
2023/02/06 06:20:05;;;;;;;29.37;9.80;;;;;;;-145.69;100.00;52765.22;5114079;28;20206;-83
2023/02/06 06:22:32;;;;;;;28.63;10.20;;;;;;;-145.69;100.00;52761.25;5114105;28;20194;-83
2023/02/06 06:25:00;;;;;;;29.83;11.27;;;;;;;-145.69;100.00;52737.50;5113729;28;20201;-82
2023/02/06 06:27:26;;;;;;;29.97;10.53;;;;;;;-145.69;100.00;52733.53;5113457;28;20288;-82
2023/02/06 06:29:53;;;;;;;33.67;10.73;;;;;;;-145.69;100.00;52743.44;5112755;28;20233;-82
2023/02/06 06:32:19;;;;;;;31.67;11.13;;;;;;;-145.69;100.00;52723.63;5113259;28;20205;-83
2023/02/06 06:34:46;;;;;;;32.33;11.23;;;;;;;-145.69;100.00;52733.53;5113453;28;20225;-82
2023/02/06 06:37:13;;;;;;;34.40;11.07;;;;;;;-145.69;100.00;52709.78;5113746;28;20676;-81
2023/02/06 06:39:39;;;;;;;33.33;11.63;;;;;;;-145.69;100.00;52715.72;5106225;28;20198;-81
2023/02/06 06:42:07;;;;;;;33.47;11.60;;;;;;;-145.69;100.00;52773.16;5112117;28;20309;-82
2023/02/06 06:44:34;;;;;;;32.33;11.13;;;;;;;-145.69;100.00;52729.56;5104628;28;20198;-81
2023/02/06 06:47:01;;;;;;;35.27;11.10;;;;;;;-145.69;100.00;52753.34;5093202;28;20236;-82
2023/02/06 06:49:27;;;;;;;39.33;12.20;;;;;;;-145.69;100.00;52761.25;5092653;28;20210;-83
2023/02/06 06:51:54;;;;;;;30.10;10.77;;;;;;;-145.69;100.00;52737.50;5093051;28;20202;-81
2023/02/06 06:54:21;;;;;;;33.23;11.30;;;;;;;-145.69;100.00;52761.25;5113286;28;20683;-82
2023/02/06 06:56:48;;;;;;;37.57;12.67;;;;;;;-145.69;100.00;52735.50;5113256;28;20713;-84
2023/02/06 06:59:16;;;;;;;44.67;13.30;;;;;;;-145.69;100.00;52729.56;5113633;28;20194;-83
2023/02/06 07:01:42;;;;;;;41.33;14.50;;;;;;;-145.69;100.00;52739.47;5114451;28;20204;-82
2023/02/06 07:04:09;;;;;;;38.87;13.70;;;;;;;-145.69;100.00;52741.47;5113159;28;20288;-82
2023/02/06 07:06:35;;;;;;;39.40;13.50;;;;;;;-145.69;100.00;52717.69;5096778;28;20199;-83
2023/02/06 07:09:02;;;;;;;44.10;13.53;;;;;;;-145.69;100.00;52741.47;5096794;28;20212;-84
2023/02/06 07:11:28;;;;;;;43.47;14.50;;;;;;;-145.69;100.00;52749.38;5113560;28;20204;-82
2023/02/06 07:13:56;;;;;;;44.97;13.80;;;;;;;-145.69;100.00;52741.47;5113583;28;20587;-83
2023/02/06 07:16:24;;;;;;;36.67;12.33;;;;;;;-145.69;100.00;52747.41;5112167;28;20273;-81
2023/02/06 07:18:51;;;;;;;35.73;11.83;;;;;;;-145.69;100.00;52749.38;5092649;28;20204;-83
2023/02/06 07:21:18;;;;;;;31.58;13.65;;;;;;;-145.69;100.00;52693.94;5092107;28;20482;-81
2023/02/06 07:23:45;;;;;;;30.23;11.93;;;;;;;-145.69;100.00;52729.56;5092748;28;20197;-81
2023/02/06 07:26:12;;;;;;;31.43;11.40;;;;;;;-145.69;100.00;52741.47;5092687;28;20217;-83
2023/02/06 07:28:38;;;;;;;27.73;10.93;;;;;;;-145.69;100.00;52781.06;5093551;28;20200;-83
2023/02/06 07:31:06;;;;;;;31.20;10.80;;;;;;;-145.69;100.00;52725.63;5092804;28;20684;-81
2023/02/06 07:33:35;;;;;;;23.37;9.17;;;;;;;-145.69;100.00;52749.38;5110944;28;20197;-84
2023/02/06 07:36:02;;;;;;;25.33;9.07;;;;;;;-145.69;100.00;52713.72;5101289;28;20299;-82
2023/02/06 07:38:28;;;;;;;32.50;11.30;;;;;;;-145.69;100.00;52733.53;5093068;28;20208;-84
2023/02/06 07:40:55;;;;;;;28.80;10.40;;;;;;;-145.69;100.00;52699.88;5092990;28;20198;-84
2023/02/06 07:43:21;;;;;;;26.93;11.03;;;;;;;-145.69;100.00;52693.94;5106013;28;20197;-82
2023/02/06 07:45:48;;;;;;;29.33;10.77;;;;;;;-145.69;100.00;52737.50;5092609;28;20652;-82
2023/02/06 07:48:15;;;;;;;25.50;9.80;;;;;;;-145.69;100.00;52753.34;5092974;28;20202;-82
2023/02/06 07:50:44;;;;;;;25.60;9.83;;;;;;;-145.69;100.00;52725.63;5092379;28;20255;-82
2023/02/06 07:53:10;;;;;;;23.20;9.63;;;;;;;-145.69;100.00;52741.47;5091038;28;20755;-82
2023/02/06 07:55:37;;;;;;;24.27;9.40;;;;;;;-145.69;100.00;52743.44;5110886;28;20217;-82
2023/02/06 07:58:04;;;;;;;24.90;10.53;;;;;;;-145.69;100.00;52739.47;5113098;28;20278;-82
2023/02/06 08:00:30;;;;;;;23.47;10.77;;;;;;;-145.69;100.00;52743.44;5113232;28;20193;-82
2023/02/06 08:02:57;;;;;;;28.47;11.87;;;;;;;-145.69;100.00;52717.69;5110665;28;20608;-82
2023/02/06 08:05:23;;;;;;;24.73;10.27;;;;;;;-145.69;100.00;52705.81;5100900;28;20197;-82
2023/02/06 08:07:51;;;;;;;24.20;10.17;;;;;;;-145.69;100.00;52727.59;5112505;28;20197;-81
2023/02/06 08:10:18;;;;;;;24.33;10.27;;;;;;;-145.69;100.00;52701.84;5116048;28;20197;-80
2023/02/06 08:12:44;;;;;;;22.67;9.57;;;;;;;-145.69;100.00;52727.59;5114196;28;20194;-81
2023/02/06 08:15:11;;;;;;;24.80;10.37;;;;;;;-145.69;100.00;52701.84;5115861;28;20213;-80
2023/02/06 08:17:37;;;;;;;26.07;10.27;;;;;;;-145.69;100.00;52725.63;5115865;28;20587;-82
2023/02/06 08:20:04;;;;;;;25.93;10.70;;;;;;;-145.69;100.00;52741.47;5116304;28;20223;-83
2023/02/06 08:22:31;;;;;;;25.90;9.93;;;;;;;-145.69;100.00;52725.63;5111469;28;20268;-80
2023/02/06 08:24:58;;;;;;;22.63;9.70;;;;;;;-145.69;100.00;52733.53;5095786;28;20206;-80
2023/02/06 08:27:26;;;;;;;22.13;9.50;;;;;;;-145.69;100.00;52725.63;5095386;28;20202;-80
2023/02/06 08:29:52;;;;;;;23.67;10.23;;;;;;;-145.69;100.00;52753.34;5095376;28;20209;-81
2023/02/06 08:32:19;;;;;;;23.43;10.37;;;;;;;-145.69;100.00;52713.72;5089389;28;20206;-80
2023/02/06 08:34:45;;;;;;;26.20;10.30;;;;;;;-145.69;100.00;52707.78;5116116;28;20280;-80
2023/02/06 08:37:11;;;;;;;24.10;9.77;;;;;;;-145.69;100.00;52707.78;5095498;28;20350;-80
2023/02/06 08:39:38;;;;;;;24.17;10.07;;;;;;;-145.69;100.00;52737.50;5095165;28;20201;-79
2023/02/06 08:42:06;;;;;;;22.50;9.70;;;;;;;-145.69;100.00;52733.53;5094950;28;20248;-80
2023/02/06 08:44:32;;;;;;;23.10;10.37;;;;;;;-145.69;100.00;52727.59;5097199;28;20198;-80
2023/02/06 08:46:59;;;;;;;24.53;9.23;;;;;;;-145.69;100.00;52743.44;5115449;28;20200;-80
2023/02/06 08:49:26;;;;;;;25.57;10.53;;;;;;;-145.69;100.00;52699.88;5115665;28;20740;-80
2023/02/06 08:51:53;;;;;;;22.33;9.27;;;;;;;-145.69;100.00;52707.78;5115566;28;20206;-80
2023/02/06 08:54:22;;;;;;;22.43;9.43;;;;;;;-145.69;100.00;52723.63;5115334;28;20251;-81
2023/02/06 08:56:50;;;;;;;19.43;9.20;;;;;;;-145.69;100.00;52709.78;5113037;28;20240;-85
2023/02/06 08:59:19;;;;;;;23.00;8.03;;;;;;;-145.69;100.00;52709.78;5095690;28;20730;-87
2023/02/06 09:01:47;;;;;;;18.93;8.40;;;;;;;-145.69;100.00;52682.03;5095625;28;20303;-83
2023/02/06 09:04:15;;;;;;;15.87;8.00;;;;;;;-145.69;100.00;52741.47;5094887;28;20247;-79
2023/02/06 09:06:44;;;;;;;21.43;9.27;;;;;;;-145.69;100.00;52711.75;5109281;28;20194;-80
2023/02/06 09:09:12;;;;;;;24.77;9.37;;;;;;;-145.69;100.00;52729.56;5115253;28;20194;-80
2023/02/06 09:11:42;;;;;;;25.10;9.77;;;;;;;-145.69;100.00;52741.47;5114810;28;20205;-79
2023/02/06 09:14:13;;;;;;;21.00;9.80;;;;;;;-145.69;100.00;52729.56;5107986;28;20661;-83
2023/02/06 09:16:41;;;;;;;23.20;10.00;;;;;;;-145.69;100.00;52684.03;5095473;28;20249;-81
2023/02/06 09:19:08;;;;;;;24.27;10.60;;;;;;;-145.69;100.00;52727.59;5095035;28;20230;-83
2023/02/06 09:21:35;;;;;;;23.40;10.47;;;;;;;-145.69;100.00;52709.78;5095471;28;20668;-83
2023/02/06 09:24:04;;;;;;;20.63;9.93;;;;;;;-145.69;100.00;52735.50;5093800;28;20205;-83
2023/02/06 09:26:35;;;;;;;21.50;10.27;;;;;;;-145.69;100.00;52743.44;5094671;28;20202;-82
2023/02/06 09:29:04;;;;;;;27.43;11.60;;;;;;;-145.69;100.00;52701.84;5113753;28;20282;-84
2023/02/06 09:31:31;;;;;;;23.70;10.90;;;;;;;-145.69;100.00;52709.78;5114710;28;20686;-80
2023/02/06 09:34:00;;;;;;;27.63;11.40;;;;;;;-145.69;100.00;52753.34;5101231;28;20213;-79
2023/02/06 09:36:29;;;;;;;32.63;12.23;;;;;;;-145.69;100.00;52727.59;5105250;28;20584;-86
2023/02/06 09:38:57;;;;;;;26.10;12.20;;;;;;;-145.69;100.00;52735.50;5114314;28;20288;-83
2023/02/06 09:41:29;;;;;;;27.00;11.47;;;;;;;-145.69;100.00;52691.94;5114620;28;20235;-84
2023/02/06 09:44:04;;;;;;;24.10;10.60;;;;;;;-145.69;100.00;52709.78;5116051;28;20284;-83
2023/02/06 09:46:33;;;;;;;23.33;10.27;;;;;;;-145.69;100.00;52749.38;5114359;28;20655;-81
2023/02/06 09:49:08;;;;;;;24.53;10.93;;;;;;;-145.69;100.00;52731.56;5114568;28;20292;-82
2023/02/06 09:51:49;;;;;;;25.20;11.60;;;;;;;-145.69;100.00;52737.50;5109157;28;20186;-81
2023/02/06 09:54:24;;;;;;;25.37;10.27;;;;;;;-145.69;100.00;52731.56;5093635;28;20194;-81
2023/02/06 09:56:57;;;;;;;20.17;9.77;;;;;;;-145.69;100.00;52705.81;5093933;28;20229;-81
2023/02/06 09:59:29;;;;;;;22.60;11.33;;;;;;;-145.69;100.00;52725.63;5093817;28;20198;-81
2023/02/06 10:02:05;;;;;;;30.57;11.17;;;;;;;-145.69;100.00;52693.94;5094200;28;20194;-80
2023/02/06 10:04:44;;;;;;;25.93;12.10;;;;;;;-145.69;100.00;52761.25;5103776;28;20663;-80
2023/02/06 10:07:31;;;;;;;26.77;11.60;;;;;;;-145.69;100.00;52707.78;5097791;28;20282;-80
2023/02/06 10:10:01;;;;;;;26.13;11.57;;;;;;;-145.69;100.00;52751.34;5093882;28;20202;-87
2023/02/06 10:12:33;;;;;;;26.33;11.07;;;;;;;-145.69;100.00;52687.97;5094678;28;20198;-86
2023/02/06 10:15:04;;;;;;;24.17;10.50;;;;;;;-145.69;100.00;52687.97;5094367;28;20599;-83
2023/02/06 10:17:35;;;;;;;23.37;11.00;;;;;;;-145.69;100.00;52725.63;5113896;28;20602;-84
2023/02/06 10:20:06;;;;;;;28.07;10.47;;;;;;;-145.69;100.00;52707.78;5095199;28;20201;-80
2023/02/06 10:22:40;;;;;;;26.17;11.53;;;;;;;-145.69;100.00;52709.78;5093550;28;20220;-84
2023/02/06 10:25:21;;;;;;;26.17;11.27;;;;;;;-145.69;100.00;52713.72;5093621;28;20208;-85
2023/02/06 10:27:53;;;;;;;25.73;10.30;;;;;;;-145.69;100.00;52725.63;5093806;28;20190;-85
2023/02/06 10:30:29;;;;;;;22.53;9.87;;;;;;;-145.69;100.00;52709.78;5093814;28;20240;-82
2023/02/06 10:33:03;;;;;;;20.17;9.83;;;;;;;-145.69;100.00;52693.94;5093209;28;20209;-86
2023/02/06 10:35:42;;;;;;;20.53;10.40;;;;;;;-145.69;100.00;52733.53;5094282;28;20205;-82
2023/02/06 10:38:44;;;;;;;24.23;10.03;;;;;;;-145.69;100.00;52699.88;5113266;28;20663;-83
2023/02/06 10:41:20;;;;;;;22.90;10.27;;;;;;;-145.69;100.00;52765.22;5078103;28;20230;-80
2023/02/06 10:43:53;;;;;;;20.93;9.73;;;;;;;-145.69;100.00;52709.78;5073547;28;20197;-82
2023/02/06 10:46:41;;;;;;;15.73;8.17;;;;;;;-145.69;100.00;52745.41;5072855;28;20214;-81
2023/02/06 10:49:18;;;;;;;16.67;8.27;;;;;;;-145.69;100.00;52701.84;5072502;28;20202;-80
2023/02/06 10:51:51;;;;;;;20.37;8.70;;;;;;;-145.69;100.00;52709.78;5072900;28;20205;-84
2023/02/06 10:54:21;;;;;;;21.27;8.07;;;;;;;-145.69;100.00;52709.78;5073857;28;20248;-81
2023/02/06 10:56:50;;;;;;;18.47;9.00;;;;;;;-145.69;100.00;52701.84;5072588;28;20234;-80
2023/02/06 10:59:24;;;;;;;18.57;9.00;;;;;;;-145.69;100.00;52672.13;5072444;28;20225;-81
2023/02/06 11:01:54;;;;;;;20.33;8.73;;;;;;;-145.69;100.00;52693.94;5072528;28;20293;-81
2023/02/06 11:04:26;;;;;;;21.57;8.87;;;;;;;-145.69;100.00;52731.56;5084230;28;20194;-82
2023/02/06 11:07:00;;;;;;;18.50;8.63;;;;;;;-145.69;100.00;52745.41;5093203;28;20198;-81